createdAt,value
2019-03-23T00:00:10.033Z,25.83
2019-03-23T00:02:39.611Z,30.70
2019-03-23T00:05:10.042Z,31.27
2019-03-23T00:07:39.623Z,32.43
2019-03-23T00:10:10.138Z,31.17
2019-03-23T00:12:39.716Z,33.57
2019-03-23T00:15:09.747Z,28.80
2019-03-23T00:17:39.415Z,31.53
2019-03-23T00:20:09.394Z,35.87
2019-03-23T00:22:38.879Z,38.10
2019-03-23T00:25:08.467Z,39.50
2019-03-23T00:27:38.039Z,35.30
2019-03-23T00:30:08.727Z,38.93
2019-03-23T00:32:38.305Z,40.40
2019-03-23T00:35:08.303Z,44.27
2019-03-23T00:37:37.863Z,39.07
2019-03-23T00:40:08.979Z,43.97
2019-03-23T00:42:38.567Z,42.53
2019-03-23T00:45:08.399Z,45.47
2019-03-23T00:47:37.919Z,48.30
2019-03-23T00:50:08.234Z,51.10
2019-03-23T00:52:37.822Z,51.97
2019-03-23T00:55:07.558Z,51.00
2019-03-23T00:57:37.202Z,50.80
2019-03-23T01:00:08.499Z,60.30
2019-03-23T01:02:38.102Z,61.63
2019-03-23T01:05:08.774Z,61.60
2019-03-23T01:07:38.342Z,75.97
2019-03-23T01:10:09.158Z,76.40
2019-03-23T01:12:38.670Z,73.60
2019-03-23T01:15:09.134Z,75.80
2019-03-23T01:17:38.730Z,74.33
2019-03-23T01:20:08.798Z,79.97
2019-03-23T01:22:38.682Z,84.17
2019-03-23T01:25:08.367Z,85.57
2019-03-23T01:27:38.106Z,79.77
2019-03-23T01:30:09.098Z,85.87
2019-03-23T01:32:38.782Z,82.53
2019-03-23T01:35:08.650Z,81.60
2019-03-23T01:37:38.247Z,78.17
2019-03-23T01:40:08.656Z,82.67
2019-03-23T01:42:38.167Z,81.80
2019-03-23T01:45:07.927Z,80.00
2019-03-23T01:47:37.531Z,80.53
2019-03-23T01:50:07.329Z,80.77
2019-03-23T01:52:36.971Z,85.03
2019-03-23T01:55:06.603Z,84.73
2019-03-23T01:57:36.207Z,83.77
2019-03-23T02:00:07.351Z,85.83
2019-03-23T02:02:36.867Z,81.87
2019-03-23T02:05:07.352Z,89.43
2019-03-23T02:07:36.860Z,88.97
2019-03-23T02:10:07.849Z,90.53
2019-03-23T02:12:37.440Z,91.40
2019-03-23T02:15:07.554Z,94.00
2019-03-23T02:17:37.204Z,96.07
2019-03-23T02:20:07.719Z,103.10
2019-03-23T02:22:37.323Z,95.67
2019-03-23T02:25:07.588Z,97.57
2019-03-23T02:27:37.088Z,93.50
2019-03-23T02:30:07.376Z,100.63
2019-03-23T02:32:36.889Z,105.23
2019-03-23T02:35:07.973Z,110.47
2019-03-23T02:37:37.469Z,111.43
2019-03-23T02:40:08.120Z,105.47
2019-03-23T02:42:37.681Z,103.53
2019-03-23T02:45:07.833Z,111.97
2019-03-23T02:47:37.267Z,101.10
2019-03-23T02:50:07.397Z,112.30
2019-03-23T02:52:37.425Z,110.20
2019-03-23T02:55:07.678Z,118.03
2019-03-23T02:57:37.256Z,116.67
2019-03-23T03:00:08.213Z,103.60
2019-03-23T03:02:37.843Z,108.10
2019-03-23T03:05:08.118Z,109.90
2019-03-23T03:07:42.630Z,112.33
2019-03-23T03:10:11.016Z,106.60
2019-03-23T03:12:40.522Z,112.80
2019-03-23T03:15:10.223Z,116.00
2019-03-23T03:17:39.769Z,114.23
2019-03-23T03:20:09.986Z,114.83
2019-03-23T03:22:39.759Z,113.10
2019-03-23T03:25:09.785Z,113.67
2019-03-23T03:27:39.360Z,118.37
2019-03-23T03:30:09.614Z,111.50
2019-03-23T03:32:39.475Z,117.57
2019-03-23T03:35:09.209Z,105.07
2019-03-23T03:37:38.764Z,115.47
2019-03-23T03:40:10.333Z,112.73
2019-03-23T03:42:39.826Z,111.57
2019-03-23T03:45:09.662Z,119.17
2019-03-23T03:47:41.242Z,116.63
2019-03-23T03:50:11.103Z,121.00
2019-03-23T03:52:40.869Z,117.87
2019-03-23T03:55:10.366Z,121.77
2019-03-23T03:57:39.808Z,123.20
2019-03-23T04:00:09.518Z,113.50
2019-03-23T04:02:39.217Z,114.60
2019-03-23T04:05:09.074Z,118.83
2019-03-23T04:07:38.830Z,120.73
2019-03-23T04:10:08.851Z,115.33
2019-03-23T04:12:38.434Z,115.90
2019-03-23T04:15:08.382Z,120.50
2019-03-23T04:17:37.979Z,118.07
2019-03-23T04:20:07.611Z,112.37
2019-03-23T04:22:37.177Z,108.90
2019-03-23T04:25:07.892Z,113.97
2019-03-23T04:27:37.442Z,109.80
2019-03-23T04:30:07.042Z,114.67
2019-03-23T04:32:37.679Z,114.10
2019-03-23T04:35:08.646Z,107.47
2019-03-23T04:37:38.153Z,114.27
2019-03-23T04:40:09.235Z,114.23
2019-03-23T04:42:38.822Z,117.13
2019-03-23T04:45:09.968Z,106.87
2019-03-23T04:47:39.538Z,114.53
2019-03-23T04:50:09.802Z,111.30
2019-03-23T04:52:39.773Z,103.67
2019-03-23T04:55:10.903Z,106.23
2019-03-23T04:57:40.766Z,109.07
2019-03-23T05:00:11.211Z,111.13
2019-03-23T05:02:40.706Z,106.70
2019-03-23T05:05:10.270Z,107.53
2019-03-23T05:07:39.839Z,111.47
2019-03-23T05:10:10.239Z,100.47
2019-03-23T05:12:39.734Z,113.50
2019-03-23T05:15:09.647Z,107.80
2019-03-23T05:17:39.132Z,107.03
2019-03-23T05:20:09.551Z,115.07
2019-03-23T05:22:39.451Z,110.73
2019-03-23T05:25:14.951Z,108.83
2019-03-23T05:27:44.391Z,118.60
2019-03-23T05:30:13.991Z,116.30
2019-03-23T05:32:43.515Z,103.83
2019-03-23T05:35:13.019Z,109.70
2019-03-23T05:37:42.551Z,109.60
2019-03-23T05:40:12.311Z,108.13
2019-03-23T05:42:41.759Z,112.13
2019-03-23T05:45:11.263Z,101.33
2019-03-23T05:47:40.759Z,107.57
2019-03-23T05:50:10.567Z,102.47
2019-03-23T05:52:40.041Z,105.23
2019-03-23T05:55:09.799Z,105.27
2019-03-23T05:57:39.480Z,105.60
2019-03-23T06:00:11.506Z,112.23
2019-03-23T06:02:40.995Z,112.37
2019-03-23T06:05:10.540Z,103.40
2019-03-23T06:07:40.039Z,114.17
2019-03-23T06:10:09.719Z,111.00
2019-03-23T06:12:39.163Z,115.60
2019-03-23T06:15:08.768Z,109.93
2019-03-23T06:17:38.265Z,110.00
2019-03-23T06:20:08.346Z,122.33
2019-03-23T06:22:37.844Z,105.03
2019-03-23T06:25:07.712Z,115.67
2019-03-23T06:27:37.220Z,117.57
2019-03-23T06:30:07.656Z,122.20
2019-03-23T06:32:37.292Z,114.03
2019-03-23T06:35:07.777Z,115.30
2019-03-23T06:37:37.348Z,113.57
2019-03-23T06:40:07.730Z,119.63
2019-03-23T06:42:37.219Z,119.20
2019-03-23T06:45:07.371Z,116.37
2019-03-23T06:47:36.951Z,119.60
2019-03-23T06:50:07.561Z,116.07
2019-03-23T06:52:37.151Z,114.93
2019-03-23T06:55:07.036Z,116.83
2019-03-23T06:57:36.768Z,109.70
2019-03-23T07:00:08.212Z,117.07
2019-03-23T07:02:38.088Z,113.53
2019-03-23T07:05:09.028Z,108.10
2019-03-23T07:07:38.689Z,111.10
2019-03-23T07:10:09.398Z,110.43
2019-03-23T07:12:39.094Z,109.30
2019-03-23T07:15:19.374Z,113.40
2019-03-23T07:17:40.808Z,111.27
2019-03-23T07:20:11.471Z,115.23
2019-03-23T07:22:40.943Z,111.37
2019-03-23T07:25:11.880Z,111.97
2019-03-23T07:27:41.502Z,105.70
2019-03-23T07:30:13.234Z,105.53
2019-03-23T07:32:42.737Z,105.00
2019-03-23T07:35:12.728Z,103.77
2019-03-23T07:37:42.311Z,112.97
2019-03-23T07:40:12.635Z,104.87
2019-03-23T07:42:42.212Z,101.13
2019-03-23T07:45:12.043Z,104.37
2019-03-23T07:47:41.695Z,105.40
2019-03-23T07:50:11.495Z,104.93
2019-03-23T07:52:41.223Z,101.73
2019-03-23T07:55:12.295Z,103.60
2019-03-23T07:57:42.108Z,93.47
2019-03-23T08:00:13.759Z,96.20
2019-03-23T08:02:43.271Z,95.37
2019-03-23T08:05:12.913Z,97.47
2019-03-23T08:07:42.559Z,98.30
2019-03-23T08:10:15.121Z,87.67
2019-03-23T08:12:44.651Z,89.17
2019-03-23T08:15:14.264Z,94.07
2019-03-23T08:17:43.808Z,84.33
2019-03-23T08:20:13.394Z,93.20
2019-03-23T08:22:43.108Z,87.93
2019-03-23T08:25:12.724Z,86.77
2019-03-23T08:27:42.296Z,94.93
2019-03-23T08:30:11.868Z,85.80
2019-03-23T08:32:41.471Z,83.10
2019-03-23T08:35:11.055Z,82.87
2019-03-23T08:37:40.688Z,82.23
2019-03-23T08:40:10.600Z,79.97
2019-03-23T08:42:40.420Z,82.17
2019-03-23T08:45:10.028Z,79.57
2019-03-23T08:47:39.505Z,71.90
2019-03-23T08:50:09.096Z,77.17
2019-03-23T08:52:38.620Z,69.80
2019-03-23T08:55:08.348Z,71.13
2019-03-23T08:57:37.887Z,61.77
2019-03-23T09:00:07.608Z,65.53
2019-03-23T09:02:37.128Z,66.73
2019-03-23T09:05:07.204Z,64.13
2019-03-23T09:07:36.728Z,65.53
2019-03-23T09:10:06.928Z,59.63
2019-03-23T09:12:36.560Z,63.87
2019-03-23T09:15:06.686Z,62.93
2019-03-23T09:17:36.313Z,62.83
2019-03-23T09:20:07.700Z,62.07
2019-03-23T09:22:37.216Z,64.60
2019-03-23T09:25:07.340Z,66.17
2019-03-23T09:27:37.212Z,57.10
2019-03-23T09:30:08.145Z,61.63
2019-03-23T09:32:37.657Z,66.33
2019-03-23T09:35:07.832Z,58.17
2019-03-23T09:37:38.118Z,70.70
2019-03-23T09:40:10.926Z,59.03
2019-03-23T09:42:40.805Z,61.83
2019-03-23T09:45:10.954Z,58.90
2019-03-23T09:47:41.057Z,62.03
2019-03-23T09:50:10.889Z,66.93
2019-03-23T09:52:40.477Z,54.73
2019-03-23T09:55:10.021Z,57.70
2019-03-23T09:57:39.482Z,56.47
2019-03-23T10:00:09.475Z,52.13
2019-03-23T10:02:39.046Z,57.50
2019-03-23T10:05:08.689Z,53.87
2019-03-23T10:07:38.311Z,50.73
2019-03-23T10:10:08.053Z,55.10
2019-03-23T10:12:37.570Z,50.90
2019-03-23T10:15:08.069Z,56.50
2019-03-23T10:17:37.558Z,63.83
2019-03-23T10:20:08.172Z,51.80
2019-03-23T10:22:37.781Z,54.67
2019-03-23T10:25:07.417Z,56.33
2019-03-23T10:27:36.902Z,56.57
2019-03-23T10:30:07.522Z,60.70
2019-03-23T10:32:37.094Z,54.50
2019-03-23T10:35:08.486Z,52.30
2019-03-23T10:37:38.014Z,56.33
2019-03-23T10:40:07.939Z,55.47
2019-03-23T10:42:37.534Z,56.70
2019-03-23T10:45:07.651Z,56.03
2019-03-23T10:47:37.305Z,54.27
2019-03-23T10:50:07.044Z,55.93
2019-03-23T10:52:36.550Z,56.57
2019-03-23T10:55:06.130Z,54.20
2019-03-23T10:57:35.695Z,54.00
2019-03-23T11:00:06.551Z,55.37
2019-03-23T11:02:36.142Z,56.97
2019-03-23T11:05:06.817Z,51.40
2019-03-23T11:07:37.239Z,56.40
2019-03-23T11:10:07.174Z,57.77
2019-03-23T11:12:37.207Z,55.47
2019-03-23T11:15:08.355Z,55.13
2019-03-23T11:17:37.919Z,56.43
2019-03-23T11:20:08.019Z,55.97
2019-03-23T11:22:37.506Z,50.00
2019-03-23T11:25:07.791Z,51.30
2019-03-23T11:27:37.384Z,58.43
2019-03-23T11:30:07.391Z,54.73
2019-03-23T11:32:36.879Z,50.27
2019-03-23T11:35:08.087Z,50.37
2019-03-23T11:37:38.200Z,50.83
2019-03-23T11:40:09.473Z,47.50
2019-03-23T11:42:49.172Z,51.00
2019-03-23T11:45:11.236Z,50.83
2019-03-23T11:47:40.815Z,52.03
2019-03-23T11:50:10.679Z,60.47
2019-03-23T11:52:40.148Z,51.10
2019-03-23T11:55:10.099Z,51.03
2019-03-23T11:57:39.976Z,49.20
2019-03-23T12:00:11.949Z,47.77
2019-03-23T12:02:41.391Z,52.30
2019-03-23T12:05:11.020Z,47.70
2019-03-23T12:07:40.900Z,50.77
2019-03-23T12:10:11.643Z,47.63
2019-03-23T12:12:41.220Z,47.23
2019-03-23T12:15:11.756Z,53.90
2019-03-23T12:17:41.491Z,49.00
2019-03-23T12:20:11.368Z,52.33
2019-03-23T12:22:40.962Z,51.77
2019-03-23T12:25:11.160Z,51.60
2019-03-23T12:27:40.771Z,49.63
2019-03-23T12:30:12.517Z,55.03
2019-03-23T12:32:42.088Z,50.47
2019-03-23T12:35:11.660Z,49.30
2019-03-23T12:37:41.254Z,50.00
2019-03-23T12:40:12.440Z,53.27
2019-03-23T12:42:42.072Z,49.03
2019-03-23T12:45:11.830Z,52.60
2019-03-23T12:47:41.328Z,52.17
2019-03-23T12:50:11.617Z,52.47
2019-03-23T12:52:41.216Z,54.17
2019-03-23T12:55:10.798Z,50.20
2019-03-23T12:57:40.330Z,52.77
2019-03-23T13:00:11.036Z,51.97
2019-03-23T13:02:41.033Z,51.00
2019-03-23T13:05:10.722Z,51.97
2019-03-23T13:07:40.416Z,53.50
2019-03-23T13:10:10.496Z,50.83
2019-03-23T13:12:40.076Z,53.93
2019-03-23T13:15:10.324Z,49.23
2019-03-23T13:17:39.836Z,51.87
2019-03-23T13:20:09.572Z,46.67
2019-03-23T13:22:39.200Z,50.60
2019-03-23T13:25:09.224Z,51.80
2019-03-23T13:27:38.720Z,52.13
2019-03-23T13:30:09.693Z,52.97
2019-03-23T13:32:39.289Z,50.90
2019-03-23T13:35:09.385Z,47.93
2019-03-23T13:37:38.877Z,52.30
2019-03-23T13:40:08.515Z,54.80
2019-03-23T13:42:38.033Z,48.67
2019-03-23T13:45:08.317Z,51.47
2019-03-23T13:47:37.917Z,52.27
2019-03-23T13:50:08.322Z,53.10
2019-03-23T13:52:37.888Z,49.93
2019-03-23T13:55:07.906Z,48.97
2019-03-23T13:57:37.761Z,49.50
2019-03-23T14:00:08.146Z,48.63
2019-03-23T14:02:38.197Z,50.47
2019-03-23T14:05:15.664Z,52.17
2019-03-23T14:07:38.889Z,50.83
2019-03-23T14:10:08.797Z,50.07
2019-03-23T14:12:38.245Z,51.33
2019-03-23T14:15:08.421Z,48.80
2019-03-23T14:17:37.902Z,50.90
2019-03-23T14:20:08.662Z,46.47
2019-03-23T14:22:38.089Z,47.13
2019-03-23T14:25:07.826Z,45.20
2019-03-23T14:27:37.693Z,46.73
2019-03-23T14:30:07.442Z,47.73
2019-03-23T14:32:37.033Z,49.40
2019-03-23T14:35:08.481Z,49.77
2019-03-23T14:37:37.913Z,48.33
2019-03-23T14:40:08.006Z,48.73
2019-03-23T14:42:37.594Z,47.00
2019-03-23T14:45:07.343Z,44.53
2019-03-23T14:47:37.235Z,48.57
2019-03-23T14:50:08.138Z,48.43
2019-03-23T14:52:37.666Z,49.23
2019-03-23T14:55:08.038Z,49.10
2019-03-23T14:57:37.718Z,52.93
2019-03-23T15:00:08.334Z,51.57
2019-03-23T15:02:37.946Z,55.37
2019-03-23T15:05:08.750Z,55.87
2019-03-23T15:07:38.995Z,58.67
2019-03-23T15:10:09.038Z,58.03
2019-03-23T15:12:42.972Z,60.03
2019-03-23T15:15:12.634Z,54.37
2019-03-23T15:17:48.643Z,50.63
2019-03-23T15:20:13.366Z,54.27
2019-03-23T15:22:42.850Z,51.60
2019-03-23T15:25:12.480Z,55.27
2019-03-23T15:27:41.897Z,52.03
2019-03-23T15:30:11.647Z,49.90
2019-03-23T15:32:41.347Z,50.57
2019-03-23T15:35:10.923Z,45.50
2019-03-23T15:37:40.430Z,48.03
2019-03-23T15:40:10.559Z,47.03
2019-03-23T15:42:40.171Z,49.47
2019-03-23T15:45:10.884Z,48.53
2019-03-23T15:47:40.416Z,48.47
2019-03-23T15:50:10.629Z,52.20
2019-03-23T15:52:40.195Z,56.00
2019-03-23T15:55:10.116Z,51.23
2019-03-23T15:57:39.672Z,49.90
2019-03-23T16:00:10.197Z,52.60
2019-03-23T16:02:39.822Z,51.00
2019-03-23T16:05:10.105Z,49.40
2019-03-23T16:07:39.909Z,53.37
2019-03-23T16:10:09.795Z,45.90
2019-03-23T16:12:39.459Z,42.50
2019-03-23T16:15:11.780Z,39.80
2019-03-23T16:17:41.387Z,46.50
2019-03-23T16:20:11.753Z,36.80
2019-03-23T16:22:41.364Z,42.23
2019-03-23T16:25:12.665Z,35.50
2019-03-23T16:27:42.189Z,34.77
2019-03-23T16:30:13.065Z,34.93
2019-03-23T16:32:42.613Z,29.23
2019-03-23T16:35:13.689Z,30.57
2019-03-23T16:37:43.278Z,28.10
2019-03-23T16:40:12.937Z,29.20
2019-03-23T16:42:45.689Z,26.90
2019-03-23T16:45:13.989Z,28.43
2019-03-23T16:47:43.570Z,24.50
2019-03-23T16:50:13.681Z,23.37
2019-03-23T16:52:43.189Z,25.27
2019-03-23T16:55:12.889Z,23.33
2019-03-23T16:57:42.398Z,20.20
2019-03-23T17:00:12.698Z,21.87
2019-03-23T17:02:42.298Z,20.63
2019-03-23T17:05:12.025Z,21.00
2019-03-23T17:07:41.598Z,18.93
2019-03-23T17:10:11.669Z,12.63
2019-03-23T17:12:41.106Z,14.63
2019-03-23T17:15:10.894Z,12.53
2019-03-23T17:17:40.335Z,13.37
2019-03-23T17:20:12.997Z,11.47
2019-03-23T17:22:42.502Z,10.43
2019-03-23T17:25:12.151Z,11.23
2019-03-23T17:27:42.066Z,10.70
2019-03-23T17:30:11.674Z,9.20
2019-03-23T17:32:41.096Z,11.17
2019-03-23T17:35:10.654Z,10.07
2019-03-23T17:37:40.090Z,9.43
2019-03-23T17:40:09.770Z,11.50
2019-03-23T17:42:39.270Z,10.03
2019-03-23T17:45:10.154Z,9.37
2019-03-23T17:47:39.586Z,10.17
2019-03-23T17:50:09.287Z,11.17
2019-03-23T17:52:38.944Z,15.73
2019-03-23T17:55:09.522Z,12.93
2019-03-23T17:57:39.071Z,8.70
2019-03-23T18:00:09.916Z,12.30
2019-03-23T18:02:39.820Z,10.83
2019-03-23T18:05:12.062Z,12.10
2019-03-23T18:07:41.220Z,14.63
2019-03-23T18:10:11.131Z,7.97
2019-03-23T18:12:40.786Z,11.57
2019-03-23T18:15:11.164Z,9.13
2019-03-23T18:17:41.087Z,9.90
2019-03-23T18:20:10.874Z,8.87
2019-03-23T18:22:40.427Z,10.33
2019-03-23T18:25:10.107Z,17.20
2019-03-23T18:27:39.716Z,9.67
2019-03-23T18:30:23.930Z,8.57
2019-03-23T18:32:53.817Z,11.53
2019-03-23T18:35:23.311Z,7.73
2019-03-23T18:37:53.004Z,13.00
2019-03-23T18:40:22.515Z,13.70
2019-03-23T18:42:52.087Z,11.33
2019-03-23T18:45:21.731Z,11.30
2019-03-23T18:47:51.288Z,9.27
2019-03-23T18:50:20.900Z,12.73
2019-03-23T18:52:50.967Z,9.20
2019-03-23T18:55:20.460Z,11.10
2019-03-23T18:57:49.951Z,11.30
2019-03-23T19:00:34.207Z,16.17
2019-03-23T19:03:03.817Z,12.83
2019-03-23T19:05:33.416Z,9.90
2019-03-23T19:08:02.916Z,10.33
2019-03-23T19:10:32.552Z,12.23
2019-03-23T19:13:02.376Z,17.93
2019-03-23T19:15:31.896Z,12.93
2019-03-23T19:18:01.736Z,13.97
2019-03-23T19:20:31.481Z,10.23
2019-03-23T19:23:01.180Z,14.03
2019-03-23T19:25:31.274Z,16.63
2019-03-23T19:28:01.150Z,16.17
2019-03-23T19:30:30.892Z,10.93
2019-03-23T19:33:00.544Z,19.40
2019-03-23T19:35:30.313Z,17.70
2019-03-23T19:38:00.277Z,11.93
2019-03-23T19:40:30.248Z,15.83
2019-03-23T19:43:00.108Z,13.40
2019-03-23T19:45:29.720Z,16.80
2019-03-23T19:47:59.282Z,15.63
2019-03-23T19:50:28.840Z,17.17
2019-03-23T19:52:58.512Z,12.63
2019-03-23T19:55:28.080Z,13.57
2019-03-23T19:57:57.632Z,12.03
2019-03-23T20:00:27.109Z,14.40
2019-03-23T20:02:56.693Z,14.87
2019-03-23T20:05:26.534Z,17.07
2019-03-23T20:07:56.121Z,15.97
2019-03-23T20:10:25.614Z,12.37
2019-03-23T20:12:55.037Z,10.17
2019-03-23T20:15:24.589Z,15.00
2019-03-23T20:17:54.241Z,14.83
2019-03-23T20:20:23.721Z,11.90
2019-03-23T20:22:53.393Z,12.33
2019-03-23T20:25:22.881Z,10.10
2019-03-23T20:27:52.663Z,11.27
2019-03-23T20:30:22.286Z,13.10
2019-03-23T20:32:51.710Z,17.60
2019-03-23T20:35:21.292Z,15.17
2019-03-23T20:37:50.785Z,22.03
2019-03-23T20:40:20.361Z,15.97
2019-03-23T20:42:49.849Z,12.20
2019-03-23T20:45:30.201Z,16.77
2019-03-23T20:48:00.129Z,18.27
2019-03-23T20:50:29.825Z,16.57
2019-03-23T20:52:59.525Z,15.73
2019-03-23T20:55:30.322Z,20.57
2019-03-23T20:58:00.020Z,18.33
2019-03-23T21:00:29.601Z,17.80
2019-03-23T21:02:59.369Z,14.00
2019-03-23T21:05:33.676Z,16.40
2019-03-23T21:08:00.199Z,13.93
2019-03-23T21:10:30.031Z,17.17
2019-03-23T21:12:59.667Z,16.13
2019-03-23T21:15:29.435Z,14.30
2019-03-23T21:17:59.014Z,16.33
2019-03-23T21:20:28.675Z,17.27
2019-03-23T21:22:58.257Z,12.90
2019-03-23T21:25:27.863Z,19.20
2019-03-23T21:27:57.449Z,23.17
2019-03-23T21:30:27.021Z,16.13
2019-03-23T21:32:56.571Z,19.30
2019-03-23T21:35:26.151Z,14.57
2019-03-23T21:37:55.699Z,16.03
2019-03-23T21:40:25.539Z,16.17
2019-03-23T21:42:55.134Z,15.03
2019-03-23T21:45:24.713Z,14.63
2019-03-23T21:47:54.204Z,14.57
2019-03-23T21:50:23.787Z,14.23
2019-03-23T21:52:53.560Z,20.10
2019-03-23T21:55:23.137Z,14.63
2019-03-23T21:57:52.848Z,17.00
2019-03-23T22:00:40.876Z,16.40
2019-03-23T22:03:10.395Z,15.33
2019-03-23T22:05:39.876Z,17.00
2019-03-23T22:08:08.567Z,18.63
2019-03-23T22:10:37.444Z,14.70
2019-03-23T22:13:06.183Z,19.27
2019-03-23T22:15:35.111Z,15.87
2019-03-23T22:18:04.504Z,21.33
2019-03-23T22:20:33.261Z,18.87
2019-03-23T22:23:02.356Z,15.30
2019-03-23T22:25:31.196Z,17.63
2019-03-23T22:27:59.940Z,13.67
2019-03-23T22:30:28.768Z,19.80
2019-03-23T22:32:57.516Z,14.43
2019-03-23T22:35:26.264Z,19.77
2019-03-23T22:37:55.024Z,14.33
2019-03-23T22:40:23.812Z,16.07
2019-03-23T22:42:53.320Z,17.10
2019-03-23T22:45:22.153Z,17.33
2019-03-23T22:47:50.841Z,13.70
2019-03-23T22:50:19.674Z,18.97
2019-03-23T22:52:48.356Z,19.27
2019-03-23T22:55:17.109Z,14.63
2019-03-23T22:57:45.800Z,18.40
2019-03-23T23:00:18.212Z,20.47
2019-03-23T23:02:46.973Z,19.37
2019-03-23T23:05:15.737Z,21.80
2019-03-23T23:07:44.524Z,15.07
2019-03-23T23:10:13.305Z,14.87
2019-03-23T23:12:42.053Z,19.47
2019-03-23T23:15:10.937Z,24.43
2019-03-23T23:17:39.715Z,17.10
2019-03-23T23:20:08.697Z,15.67
2019-03-23T23:22:37.445Z,14.53
2019-03-23T23:25:06.668Z,14.47
2019-03-23T23:27:35.339Z,16.67
2019-03-23T23:30:04.933Z,19.33
2019-03-23T23:32:33.608Z,16.63
2019-03-23T23:35:02.357Z,16.57
2019-03-23T23:37:31.111Z,20.27
2019-03-23T23:39:59.797Z,16.93
2019-03-23T23:42:28.465Z,15.37
2019-03-23T23:44:57.150Z,14.30
2019-03-23T23:47:26.181Z,18.70
2019-03-23T23:49:54.893Z,16.53
2019-03-23T23:52:23.593Z,18.03
2019-03-23T23:54:52.282Z,18.87
2019-03-23T23:57:21.050Z,19.47
2019-03-23T23:59:49.808Z,15.50
